Time;durP1;ratioP1;P1;durP2;ratioP2;P2;SDS_P1;SDS_P2;PMS_P1;PMS_P2;Temp;Humidity;BMP_temperature;BMP_pressure;BME280_temperature;BME280_humidity;BME280_pressure;Samples;Min_cycle;Max_cycle;Signal;HPM_P1;HPM_P2
2024/02/27 00:01:18;;;;;;;;;;;;;;;;;;6330980;28;19969;-80
2024/02/27 00:04:18;;;;;;;;;;;;;;;;;;6337950;28;19912;-79
2024/02/27 00:07:18;;;;;;;;;;;;;;;;;;6325160;28;19908;-81
2024/02/27 00:10:18;;;;;;;;;;;;;;;;;;6336118;28;20008;-79
2024/02/27 00:13:19;;;;;;;;;;;;;;;;;;6334253;28;19923;-79
2024/02/27 00:16:20;;;;;;;;;;;;;;;;;;6349326;28;19947;-80
2024/02/27 00:19:20;;;;;;;;;;;;;;;;;;6344356;28;19912;-79
2024/02/27 00:22:21;;;;;;;;;;;;;;;;;;6324107;28;19974;-79
2024/02/27 00:25:21;;;;;;;;;;;;;;;;;;6333407;28;20052;-79
2024/02/27 00:28:21;;;;;;;;;;;;;;;;;;6326613;28;19912;-79
2024/02/27 00:31:21;;;;;;;;;;;;;;;;;;6305687;28;19909;-79
2024/02/27 00:34:21;;;;;;;;;;;;;;;;;;6342292;28;19911;-79
2024/02/27 00:37:21;;;;;;;;;;;;;;;;;;6305959;28;19912;-79
2024/02/27 00:40:21;;;;;;;;;;;;;;;;;;6323901;28;19912;-79
2024/02/27 00:43:22;;;;;;;;;;;;;;;;;;6323230;28;19920;-79
2024/02/27 00:46:22;;;;;;;;;;;;;;;;;;6324146;28;19916;-79
2024/02/27 00:49:22;;;;;;;;;;;;;;;;;;6322943;28;19919;-79
2024/02/27 00:52:23;;;;;;;;;;;;;;;;;;6323371;28;19912;-79
2024/02/27 00:55:24;;;;;;;;;;;;;;;;;;6323679;28;19912;-79
2024/02/27 00:58:24;;;;;;;;;;;;;;;;;;6323604;28;19958;-79
2024/02/27 01:01:24;;;;;;;;;;;;;;;;;;6322788;28;19916;-80
2024/02/27 01:04:24;;;;;;;;;;;;;;;;;;6323404;28;19960;-80
2024/02/27 01:07:24;;;;;;;;;;;;;;;;;;6327712;28;19920;-80
2024/02/27 01:10:24;;;;;;;;;;;;;;;;;;6323735;28;19916;-79
2024/02/27 01:13:24;;;;;;;;;;;;;;;;;;6342229;27;19928;-79
2024/02/27 01:16:24;;;;;;;;;;;;;;;;;;6360320;27;19919;-79
2024/02/27 01:19:25;;;;;;;;;;;;;;;;;;6347028;28;19972;-80
2024/02/27 01:22:25;;;;;;;;;;;;;;;;;;6348036;28;19919;-79
2024/02/27 01:25:27;;;;;;;;;;;;;;;;;;6370551;27;20468;-79
2024/02/27 01:28:27;;;;;;;;;;;;;;;;;;6373349;27;19907;-79
2024/02/27 01:31:27;;;;;;;;;;;;;;;;;;6360241;27;19912;-79
2024/02/27 01:34:28;;;;;;;;;;;;;;;;;;6354731;27;19912;-79
2024/02/27 01:37:28;;;;;;;;;;;;;;;;;;6346620;28;19989;-79
2024/02/27 01:40:28;;;;;;;;;;;;;;;;;;6351747;27;19922;-79
2024/02/27 01:43:28;;;;;;;;;;;;;;;;;;6373102;27;19917;-79
2024/02/27 01:46:28;;;;;;;;;;;;;;;;;;6364786;27;20018;-79
2024/02/27 01:49:28;;;;;;;;;;;;;;;;;;6349433;27;19911;-79
2024/02/27 01:52:28;;;;;;;;;;;;;;;;;;6373641;27;19911;-79
2024/02/27 01:55:28;;;;;;;;;;;;;;;;;;6347191;28;19907;-79
2024/02/27 01:58:29;;;;;;;;;;;;;;;;;;6346055;28;20288;-79
2024/02/27 02:01:29;;;;;;;;;;;;;;;;;;6346822;28;20291;-79
2024/02/27 02:04:30;;;;;;;;;;;;;;;;;;6347614;28;19916;-79
2024/02/27 02:07:30;;;;;;;;;;;;;;;;;;6369417;28;19912;-79
2024/02/27 02:10:30;;;;;;;;;;;;;;;;;;6355174;28;20294;-79
2024/02/27 02:13:30;;;;;;;;;;;;;;;;;;6354393;28;19930;-79
2024/02/27 02:16:30;;;;;;;;;;;;;;;;;;6350238;28;19911;-79
2024/02/27 02:19:30;;;;;;;;;;;;;;;;;;6373278;28;19911;-79
2024/02/27 02:22:30;;;;;;;;;;;;;;;;;;6370350;28;19923;-80
2024/02/27 02:25:32;;;;;;;;;;;;;;;;;;6371246;28;19912;-79
2024/02/27 02:28:32;;;;;;;;;;;;;;;;;;6372257;27;19911;-79
2024/02/27 02:31:32;;;;;;;;;;;;;;;;;;6370884;28;19962;-79
2024/02/27 02:34:33;;;;;;;;;;;;;;;;;;6364845;28;19959;-79
2024/02/27 02:37:33;;;;;;;;;;;;;;;;;;6347580;28;19999;-79
2024/02/27 02:40:33;;;;;;;;;;;;;;;;;;6347819;28;20014;-80
2024/02/27 02:43:33;;;;;;;;;;;;;;;;;;6346219;28;19919;-79
2024/02/27 02:46:35;;;;;;;;;;;;;;;;;;6346805;28;20010;-79
2024/02/27 02:49:35;;;;;;;;;;;;;;;;;;6346991;28;19919;-79
2024/02/27 02:52:35;;;;;;;;;;;;;;;;;;6348535;28;20255;-79
2024/02/27 02:55:40;;;;;;;;;;;;;;;;;;6357388;28;19957;-79
2024/02/27 02:58:40;;;;;;;;;;;;;;;;;;6369666;27;19945;-79
2024/02/27 03:01:41;;;;;;;;;;;;;;;;;;6353701;28;19976;-79
2024/02/27 03:04:41;;;;;;;;;;;;;;;;;;6346951;28;19961;-79
2024/02/27 03:07:41;;;;;;;;;;;;;;;;;;6373755;27;19918;-79
2024/02/27 03:10:41;;;;;;;;;;;;;;;;;;6354231;27;20014;-79
2024/02/27 03:13:41;;;;;;;;;;;;;;;;;;6360232;27;19926;-79
2024/02/27 03:16:42;;;;;;;;;;;;;;;;;;6360030;27;19918;-79
2024/02/27 03:19:42;;;;;;;;;;;;;;;;;;6350944;28;19912;-81
2024/02/27 03:22:42;;;;;;;;;;;;;;;;;;6351350;28;19911;-79
2024/02/27 03:25:42;;;;;;;;;;;;;;;;;;6344073;28;19916;-79
2024/02/27 03:28:42;;;;;;;;;;;;;;;;;;6331921;28;19915;-79
2024/02/27 03:31:42;;;;;;;;;;;;;;;;;;6362075;27;20013;-79
2024/02/27 03:34:42;;;;;;;;;;;;;;;;;;6350945;28;19921;-80
2024/02/27 03:37:43;;;;;;;;;;;;;;;;;;6351020;28;19919;-81
2024/02/27 03:40:43;;;;;;;;;;;;;;;;;;6357912;27;19923;-79
2024/02/27 03:43:43;;;;;;;;;;;;;;;;;;6364412;27;19927;-83
2024/02/27 03:46:43;;;;;;;;;;;;;;;;;;6348109;28;19942;-83
2024/02/27 03:49:43;;;;;;;;;;;;;;;;;;6349434;27;19915;-83
2024/02/27 03:52:43;;;;;;;;;;;;;;;;;;6358623;27;19920;-83
2024/02/27 03:55:44;;;;;;;;;;;;;;;;;;6350720;28;19908;-83
2024/02/27 03:58:44;;;;;;;;;;;;;;;;;;6349180;27;19918;-83
2024/02/27 04:01:44;;;;;;;;;;;;;;;;;;6362133;27;19961;-83
2024/02/27 04:04:44;;;;;;;;;;;;;;;;;;6369222;27;19930;-83
2024/02/27 04:07:45;;;;;;;;;;;;;;;;;;6356856;27;20002;-83
2024/02/27 04:10:45;;;;;;;;;;;;;;;;;;6357280;27;19992;-83
2024/02/27 04:13:45;;;;;;;;;;;;;;;;;;6363522;27;19924;-83
2024/02/27 04:16:45;;;;;;;;;;;;;;;;;;6340842;28;19908;-84
2024/02/27 04:19:46;;;;;;;;;;;;;;;;;;6361419;27;19911;-83
2024/02/27 04:22:46;;;;;;;;;;;;;;;;;;6331304;27;20273;-83
2024/02/27 04:25:46;;;;;;;;;;;;;;;;;;6350915;27;20380;-83
2024/02/27 04:28:46;;;;;;;;;;;;;;;;;;6372206;27;19912;-83
2024/02/27 04:31:46;;;;;;;;;;;;;;;;;;6374855;27;19915;-83
2024/02/27 04:34:46;;;;;;;;;;;;;;;;;;6345646;27;19922;-83
2024/02/27 04:37:46;;;;;;;;;;;;;;;;;;6354757;27;19918;-83
2024/02/27 04:40:47;;;;;;;;;;;;;;;;;;6353579;27;19919;-83
2024/02/27 04:43:47;;;;;;;;;;;;;;;;;;6369587;27;19915;-83
2024/02/27 04:46:47;;;;;;;;;;;;;;;;;;6373788;27;19915;-83
2024/02/27 04:49:47;;;;;;;;;;;;;;;;;;6348847;27;19919;-83
2024/02/27 04:52:47;;;;;;;;;;;;;;;;;;6351556;27;19919;-78
2024/02/27 04:55:47;;;;;;;;;;;;;;;;;;6349098;28;20396;-79
2024/02/27 04:58:47;;;;;;;;;;;;;;;;;;6351236;27;20324;-79
2024/02/27 05:01:48;;;;;;;;;;;;;;;;;;6370195;27;20069;-78
2024/02/27 05:04:48;;;;;;;;;;;;;;;;;;6367079;27;20006;-79
2024/02/27 05:07:48;;;;;;;;;;;;;;;;;;6352037;27;19919;-79
2024/02/27 05:10:48;;;;;;;;;;;;;;;;;;6371137;27;19918;-79
2024/02/27 05:13:48;;;;;;;;;;;;;;;;;;6355765;27;19926;-79
2024/02/27 05:16:48;;;;;;;;;;;;;;;;;;6310615;28;19916;-79
2024/02/27 05:19:48;;;;;;;;;;;;;;;;;;6323215;28;19908;-79
2024/02/27 05:22:49;;;;;;;;;;;;;;;;;;6312101;28;19916;-79
2024/02/27 05:25:49;;;;;;;;;;;;;;;;;;6315913;28;19916;-79
2024/02/27 05:28:49;;;;;;;;;;;;;;;;;;6321265;28;19965;-79
2024/02/27 05:31:50;;;;;;;;;;;;;;;;;;6313467;28;19964;-80
2024/02/27 05:34:50;;;;;;;;;;;;;;;;;;6314828;28;19918;-79
2024/02/27 05:37:50;;;;;;;;;;;;;;;;;;6304664;28;19915;-81
2024/02/27 05:40:50;;;;;;;;;;;;;;;;;;6344614;28;19926;-79
2024/02/27 05:43:51;;;;;;;;;;;;;;;;;;6332866;28;19960;-81
2024/02/27 05:46:51;;;;;;;;;;;;;;;;;;6324048;28;19919;-79
2024/02/27 05:49:51;;;;;;;;;;;;;;;;;;6325678;28;20326;-79
2024/02/27 05:52:51;;;;;;;;;;;;;;;;;;6332178;28;19919;-79
2024/02/27 05:55:51;;;;;;;;;;;;;;;;;;6326411;28;20257;-80
2024/02/27 05:58:53;;;;;;;;;;;;;;;;;;6331795;28;19932;-79
2024/02/27 06:01:53;;;;;;;;;;;;;;;;;;6331353;28;19923;-79
2024/02/27 06:04:53;;;;;;;;;;;;;;;;;;6336694;28;20299;-80
2024/02/27 06:07:54;;;;;;;;;;;;;;;;;;6332749;28;20411;-79
2024/02/27 06:10:54;;;;;;;;;;;;;;;;;;6307810;28;20519;-79
2024/02/27 06:13:54;;;;;;;;;;;;;;;;;;6328046;28;19927;-84
2024/02/27 06:16:54;;;;;;;;;;;;;;;;;;6328650;28;19941;-83
2024/02/27 06:19:59;;;;;;;;;;;;;;;;;;6327279;28;20365;-84
2024/02/27 06:22:59;;;;;;;;;;;;;;;;;;6307955;28;19916;-83
2024/02/27 06:26:00;;;;;;;;;;;;;;;;;;6328482;28;20369;-83
2024/02/27 06:29:00;;;;;;;;;;;;;;;;;;6322219;28;19965;-83
2024/02/27 06:32:01;;;;;;;;;;;;;;;;;;6325831;28;19912;-83
2024/02/27 06:35:01;;;;;;;;;;;;;;;;;;6303120;28;19913;-82
2024/02/27 06:38:01;;;;;;;;;;;;;;;;;;6310810;28;19912;-81
2024/02/27 06:41:01;;;;;;;;;;;;;;;;;;6333631;28;19916;-81
2024/02/27 06:44:01;;;;;;;;;;;;;;;;;;6323608;28;20304;-77
2024/02/27 06:47:01;;;;;;;;;;;;;;;;;;6327308;28;19965;-83
2024/02/27 06:50:01;;;;;;;;;;;;;;;;;;6336821;28;20767;-84
2024/02/27 06:53:03;;;;;;;;;;;;;;;;;;6330478;28;19916;-83
2024/02/27 06:56:03;;;;;;;;;;;;;;;;;;6336936;28;19937;-83
2024/02/27 06:59:03;;;;;;;;;;;;;;;;;;6326158;28;19950;-81
2024/02/27 07:02:05;;;;;;;;;;;;;;;;;;6334412;28;19915;-79
2024/02/27 07:05:05;;;;;;;;;;;;;;;;;;6325880;28;19923;-79
2024/02/27 07:08:05;;;;;;;;;;;;;;;;;;6339353;28;20277;-79
2024/02/27 07:11:06;;;;;;;;;;;;;;;;;;6339832;28;20287;-78
2024/02/27 07:14:06;;;;;;;;;;;;;;;;;;6348357;27;19968;-80
2024/02/27 07:17:06;;;;;;;;;;;;;;;;;;6356132;27;19916;-79
2024/02/27 07:20:07;;;;;;;;;;;;;;;;;;6346766;27;19912;-80
2024/02/27 07:23:07;;;;;;;;;;;;;;;;;;6355253;27;19959;-80
2024/02/27 07:26:07;;;;;;;;;;;;;;;;;;6355186;27;20344;-82
2024/02/27 07:29:07;;;;;;;;;;;;;;;;;;6371338;27;20369;-81
2024/02/27 07:32:09;;;;;;;;;;;;;;;;;;6354120;27;20394;-80
2024/02/27 07:35:09;;;;;;;;;;;;;;;;;;6352598;27;20006;-82
2024/02/27 07:38:09;;;;;;;;;;;;;;;;;;6363606;27;19922;-81
2024/02/27 07:41:10;;;;;;;;;;;;;;;;;;6355576;27;19934;-82
2024/02/27 07:44:10;;;;;;;;;;;;;;;;;;6352480;27;19923;-81
2024/02/27 07:47:10;;;;;;;;;;;;;;;;;;6355088;27;20253;-81
2024/02/27 07:50:11;;;;;;;;;;;;;;;;;;6355313;27;19954;-81
2024/02/27 07:53:11;;;;;;;;;;;;;;;;;;6368823;27;19907;-82
2024/02/27 07:56:11;;;;;;;;;;;;;;;;;;6367450;27;19915;-81
2024/02/27 07:59:11;;;;;;;;;;;;;;;;;;6357799;27;19908;-82
2024/02/27 08:02:12;;;;;;;;;;;;;;;;;;6376102;27;20409;-81
2024/02/27 08:05:12;;;;;;;;;;;;;;;;;;6358782;27;19916;-80
2024/02/27 08:08:13;;;;;;;;;;;;;;;;;;6355559;27;19918;-81
2024/02/27 08:11:14;;;;;;;;;;;;;;;;;;6370112;27;19911;-81
2024/02/27 08:14:16;;;;;;;;;;;;;;;;;;6358804;27;19954;-81
2024/02/27 08:17:16;;;;;;;;;;;;;;;;;;6361308;27;19919;-82
2024/02/27 08:20:16;;;;;;;;;;;;;;;;;;6367940;27;19918;-82
2024/02/27 08:23:16;;;;;;;;;;;;;;;;;;6350761;28;20262;-83
2024/02/27 08:26:17;;;;;;;;;;;;;;;;;;6355192;27;19919;-83
2024/02/27 08:29:17;;;;;;;;;;;;;;;;;;6364500;27;19926;-83
2024/02/27 08:32:19;;;;;;;;;;;;;;;;;;6359892;27;19918;-82
2024/02/27 08:35:20;;;;;;;;;;;;;;;;;;6356928;27;20367;-83
2024/02/27 08:38:20;;;;;;;;;;;;;;;;;;6351659;27;19911;-82
2024/02/27 08:41:21;;;;;;;;;;;;;;;;;;6357073;27;19915;-83
2024/02/27 08:44:21;;;;;;;;;;;;;;;;;;6348219;28;19912;-82
2024/02/27 08:47:22;;;;;;;;;;;;;;;;;;6358689;27;19916;-83
2024/02/27 08:50:22;;;;;;;;;;;;;;;;;;6349861;28;19959;-82
2024/02/27 08:53:22;;;;;;;;;;;;;;;;;;6355514;27;19911;-80
2024/02/27 08:56:22;;;;;;;;;;;;;;;;;;6359874;27;19911;-80
2024/02/27 08:59:23;;;;;;;;;;;;;;;;;;6366906;27;19919;-79
2024/02/27 09:02:24;;;;;;;;;;;;;;;;;;6355213;27;19915;-80
2024/02/27 09:05:24;;;;;;;;;;;;;;;;;;6362472;27;19924;-79
2024/02/27 09:08:26;;;;;;;;;;;;;;;;;;6361074;27;20276;-80
2024/02/27 09:11:26;;;;;;;;;;;;;;;;;;6356623;27;19912;-80
2024/02/27 09:14:26;;;;;;;;;;;;;;;;;;6340412;27;19920;-80
2024/02/27 09:17:31;;;;;;;;;;;;;;;;;;6338779;28;19912;-80
2024/02/27 09:20:32;;;;;;;;;;;;;;;;;;6349363;28;20361;-82
2024/02/27 09:23:32;;;;;;;;;;;;;;;;;;6340844;28;19922;-83
2024/02/27 09:26:32;;;;;;;;;;;;;;;;;;6326886;28;19912;-84
2024/02/27 09:29:32;;;;;;;;;;;;;;;;;;6306432;28;19961;-84
2024/02/27 09:32:32;;;;;;;;;;;;;;;;;;6315111;28;19919;-83
2024/02/27 09:35:32;;;;;;;;;;;;;;;;;;6322400;28;19908;-84
2024/02/27 09:38:32;;;;;;;;;;;;;;;;;;6325507;28;19964;-83
2024/02/27 09:41:32;;;;;;;;;;;;;;;;;;6329299;28;19920;-83
2024/02/27 09:44:33;;;;;;;;;;;;;;;;;;6327109;28;19920;-84
2024/02/27 09:47:33;;;;;;;;;;;;;;;;;;6315614;28;19939;-84
2024/02/27 09:50:33;;;;;;;;;;;;;;;;;;6344052;28;20335;-84
2024/02/27 09:53:33;;;;;;;;;;;;;;;;;;6336268;28;20369;-84
2024/02/27 09:56:33;;;;;;;;;;;;;;;;;;6324230;28;19916;-84
2024/02/27 09:59:33;;;;;;;;;;;;;;;;;;6323370;28;19919;-83
2024/02/27 10:02:33;;;;;;;;;;;;;;;;;;6312979;28;19919;-84
2024/02/27 10:05:34;;;;;;;;;;;;;;;;;;6333466;28;19920;-83
2024/02/27 10:08:34;;;;;;;;;;;;;;;;;;6309323;28;19923;-83
2024/02/27 10:11:34;;;;;;;;;;;;;;;;;;6329699;28;19999;-83
2024/02/27 10:14:34;;;;;;;;;;;;;;;;;;6296664;28;20011;-81
2024/02/27 10:17:36;;;;;;;;;;;;;;;;;;6302243;28;20055;-81
2024/02/27 10:20:36;;;;;;;;;;;;;;;;;;6313200;28;20398;-80
2024/02/27 10:23:37;;;;;;;;;;;;;;;;;;6305927;28;19913;-81
2024/02/27 10:26:37;;;;;;;;;;;;;;;;;;6309478;28;19919;-81
2024/02/27 10:29:37;;;;;;;;;;;;;;;;;;6301368;28;19975;-79
2024/02/27 10:32:39;;;;;;;;;;;;;;;;;;6307968;28;20006;-79
2024/02/27 10:35:39;;;;;;;;;;;;;;;;;;6307662;28;20288;-78
2024/02/27 10:38:39;;;;;;;;;;;;;;;;;;6303055;28;19913;-78
2024/02/27 10:41:39;;;;;;;;;;;;;;;;;;6303440;28;19917;-78
2024/02/27 10:44:39;;;;;;;;;;;;;;;;;;6322284;28;19915;-79
2024/02/27 10:47:40;;;;;;;;;;;;;;;;;;6327346;28;19912;-79
2024/02/27 10:50:40;;;;;;;;;;;;;;;;;;6325222;28;20289;-78
2024/02/27 10:53:40;;;;;;;;;;;;;;;;;;6322125;28;20024;-82
2024/02/27 10:56:40;;;;;;;;;;;;;;;;;;6312017;28;19946;-82
2024/02/27 10:59:40;;;;;;;;;;;;;;;;;;6327407;28;19912;-84
2024/02/27 11:02:40;;;;;;;;;;;;;;;;;;6327798;28;19912;-85
2024/02/27 11:05:41;;;;;;;;;;;;;;;;;;6311683;28;19923;-84
2024/02/27 11:08:41;;;;;;;;;;;;;;;;;;6322378;28;19912;-87
2024/02/27 11:11:41;;;;;;;;;;;;;;;;;;6311854;28;19945;-86
2024/02/27 11:14:42;;;;;;;;;;;;;;;;;;6351535;27;19927;-86
2024/02/27 11:17:43;;;;;;;;;;;;;;;;;;6355336;27;19920;-85
2024/02/27 11:20:43;;;;;;;;;;;;;;;;;;6351624;28;20368;-83
2024/02/27 11:23:43;;;;;;;;;;;;;;;;;;6362255;27;19923;-82
2024/02/27 11:26:43;;;;;;;;;;;;;;;;;;6375456;27;19915;-83
2024/02/27 11:29:44;;;;;;;;;;;;;;;;;;6359617;27;19912;-86
2024/02/27 11:32:44;;;;;;;;;;;;;;;;;;6374745;27;20312;-84
2024/02/27 11:35:44;;;;;;;;;;;;;;;;;;6363091;27;19908;-83
2024/02/27 11:38:44;;;;;;;;;;;;;;;;;;6358917;27;19912;-81
2024/02/27 11:41:44;;;;;;;;;;;;;;;;;;6349777;28;20300;-82
2024/02/27 11:44:44;;;;;;;;;;;;;;;;;;6354227;27;19966;-84
2024/02/27 11:47:47;;;;;;;;;;;;;;;;;;6375142;27;19918;-89
2024/02/27 11:50:47;;;;;;;;;;;;;;;;;;6374685;27;19915;-88
2024/02/27 11:53:47;;;;;;;;;;;;;;;;;;6347569;27;19957;-88
2024/02/27 11:56:47;;;;;;;;;;;;;;;;;;6375946;27;20279;-89
2024/02/27 11:59:47;;;;;;;;;;;;;;;;;;6363476;27;20401;-89
2024/02/27 12:02:48;;;;;;;;;;;;;;;;;;6362760;27;20069;-89
2024/02/27 12:05:49;;;;;;;;;;;;;;;;;;6352799;27;20352;-86
2024/02/27 12:08:49;;;;;;;;;;;;;;;;;;6355004;27;20382;-89
2024/02/27 12:11:49;;;;;;;;;;;;;;;;;;6370102;27;19952;-89
2024/02/27 12:14:49;;;;;;;;;;;;;;;;;;6363515;27;19950;-84
2024/02/27 12:17:49;;;;;;;;;;;;;;;;;;6376915;27;19951;-89
2024/02/27 12:20:50;;;;;;;;;;;;;;;;;;6354231;27;19943;-89
2024/02/27 12:23:50;;;;;;;;;;;;;;;;;;6372479;27;20004;-88
2024/02/27 12:26:50;;;;;;;;;;;;;;;;;;6361304;27;19908;-90
2024/02/27 12:29:50;;;;;;;;;;;;;;;;;;6351198;28;19908;-89
2024/02/27 12:32:50;;;;;;;;;;;;;;;;;;6372448;27;19908;-90
2024/02/27 12:35:50;;;;;;;;;;;;;;;;;;6374581;27;19969;-89
2024/02/27 12:38:50;;;;;;;;;;;;;;;;;;6377415;27;19931;-89
2024/02/27 12:41:51;;;;;;;;;;;;;;;;;;6376067;27;19912;-89
2024/02/27 12:44:51;;;;;;;;;;;;;;;;;;6368520;27;19915;-89
2024/02/27 12:47:51;;;;;;;;;;;;;;;;;;6373464;27;20390;-89
2024/02/27 12:50:51;;;;;;;;;;;;;;;;;;6356808;27;20449;-89
2024/02/27 12:53:51;;;;;;;;;;;;;;;;;;6365869;27;19964;-89
2024/02/27 12:56:51;;;;;;;;;;;;;;;;;;6378174;27;19915;-87
2024/02/27 12:59:51;;;;;;;;;;;;;;;;;;6372526;27;19926;-89
2024/02/27 13:02:53;;;;;;;;;;;;;;;;;;6363370;27;19922;-89
2024/02/27 13:05:53;;;;;;;;;;;;;;;;;;6359511;27;19923;-89
2024/02/27 13:08:53;;;;;;;;;;;;;;;;;;6375977;27;20279;-90
2024/02/27 13:11:53;;;;;;;;;;;;;;;;;;6353564;27;19911;-78
2024/02/27 13:14:54;;;;;;;;;;;;;;;;;;6346691;27;20023;-79
2024/02/27 13:17:54;;;;;;;;;;;;;;;;;;6348599;28;19918;-78
2024/02/27 13:20:54;;;;;;;;;;;;;;;;;;6328785;28;19922;-78
2024/02/27 13:23:54;;;;;;;;;;;;;;;;;;6348642;28;19998;-78
2024/02/27 13:26:54;;;;;;;;;;;;;;;;;;6329038;28;20360;-78
2024/02/27 13:29:54;;;;;;;;;;;;;;;;;;6322112;28;19912;-78
2024/02/27 13:32:54;;;;;;;;;;;;;;;;;;6302551;28;19959;-78
2024/02/27 13:35:55;;;;;;;;;;;;;;;;;;6303573;28;19976;-78
2024/02/27 13:38:55;;;;;;;;;;;;;;;;;;6305884;28;20353;-77
2024/02/27 13:41:55;;;;;;;;;;;;;;;;;;6323289;28;19912;-78
2024/02/27 13:44:55;;;;;;;;;;;;;;;;;;6305844;28;20397;-78
2024/02/27 13:47:55;;;;;;;;;;;;;;;;;;6329841;28;20360;-77
2024/02/27 13:50:55;;;;;;;;;;;;;;;;;;6343769;28;19919;-78
2024/02/27 13:53:55;;;;;;;;;;;;;;;;;;6322949;28;19908;-78
2024/02/27 13:56:55;;;;;;;;;;;;;;;;;;6305424;28;19912;-77
2024/02/27 13:59:56;;;;;;;;;;;;;;;;;;6322735;28;19912;-78
2024/02/27 14:02:56;;;;;;;;;;;;;;;;;;6326145;28;19923;-78
2024/02/27 14:05:57;;;;;;;;;;;;;;;;;;6323129;28;20288;-77
2024/02/27 14:08:57;;;;;;;;;;;;;;;;;;6328087;28;19916;-77
2024/02/27 14:11:57;;;;;;;;;;;;;;;;;;6349934;28;19915;-77
2024/02/27 14:14:57;;;;;;;;;;;;;;;;;;6322756;28;19942;-78
2024/02/27 14:17:57;;;;;;;;;;;;;;;;;;6347448;28;19916;-78
2024/02/27 14:20:59;;;;;;;;;;;;;;;;;;6348626;28;19912;-77
2024/02/27 14:24:00;;;;;;;;;;;;;;;;;;6341700;28;20357;-89
2024/02/27 14:27:00;;;;;;;;;;;;;;;;;;6324146;28;19914;-87
2024/02/27 14:30:00;;;;;;;;;;;;;;;;;;6329496;28;19997;-88
2024/02/27 14:33:00;;;;;;;;;;;;;;;;;;6348020;28;19953;-88
2024/02/27 14:36:00;;;;;;;;;;;;;;;;;;6340491;28;19919;-88
2024/02/27 14:39:00;;;;;;;;;;;;;;;;;;6348985;28;19908;-88
2024/02/27 14:42:00;;;;;;;;;;;;;;;;;;6332459;28;19911;-88
2024/02/27 14:45:01;;;;;;;;;;;;;;;;;;6347899;28;19951;-89
2024/02/27 14:48:01;;;;;;;;;;;;;;;;;;6341664;28;19919;-89
2024/02/27 14:51:02;;;;;;;;;;;;;;;;;;6305233;28;19912;-88
2024/02/27 14:54:02;;;;;;;;;;;;;;;;;;6324071;28;19908;-88
2024/02/27 14:57:02;;;;;;;;;;;;;;;;;;6323563;28;20374;-88
2024/02/27 15:00:02;;;;;;;;;;;;;;;;;;6304259;28;19962;-87
2024/02/27 15:03:03;;;;;;;;;;;;;;;;;;6342500;28;19919;-86
2024/02/27 15:06:03;;;;;;;;;;;;;;;;;;6342035;28;19916;-88
2024/02/27 15:09:03;;;;;;;;;;;;;;;;;;6340679;28;19954;-87
2024/02/27 15:12:08;;;;;;;;;;;;;;;;;;6353051;28;19947;-87
2024/02/27 15:15:08;;;;;;;;;;;;;;;;;;6373549;27;20699;-89
2024/02/27 15:18:08;;;;;;;;;;;;;;;;;;6377831;27;19912;-88
2024/02/27 15:21:08;;;;;;;;;;;;;;;;;;6359703;27;19923;-89
2024/02/27 15:24:08;;;;;;;;;;;;;;;;;;6351875;28;19919;-89
2024/02/27 15:27:08;;;;;;;;;;;;;;;;;;6370728;27;19907;-88
2024/02/27 15:30:10;;;;;;;;;;;;;;;;;;6357705;27;19984;-88
2024/02/27 15:33:11;;;;;;;;;;;;;;;;;;6351767;28;19931;-77
2024/02/27 15:36:11;;;;;;;;;;;;;;;;;;6351158;28;19908;-77
2024/02/27 15:39:11;;;;;;;;;;;;;;;;;;6350225;28;19915;-77
2024/02/27 15:42:11;;;;;;;;;;;;;;;;;;6351450;28;19922;-83
2024/02/27 15:45:11;;;;;;;;;;;;;;;;;;6373044;27;19918;-77
2024/02/27 15:48:11;;;;;;;;;;;;;;;;;;6376318;27;19911;-76
2024/02/27 15:51:12;;;;;;;;;;;;;;;;;;6376570;27;19911;-77
2024/02/27 15:54:12;;;;;;;;;;;;;;;;;;6376822;27;19907;-77
2024/02/27 15:57:12;;;;;;;;;;;;;;;;;;6366763;27;19912;-78
2024/02/27 16:00:12;;;;;;;;;;;;;;;;;;6371956;27;19934;-77
2024/02/27 16:03:12;;;;;;;;;;;;;;;;;;6368808;27;19919;-77
2024/02/27 16:06:12;;;;;;;;;;;;;;;;;;6356120;27;19968;-77
2024/02/27 16:09:13;;;;;;;;;;;;;;;;;;6373180;27;19918;-77
2024/02/27 16:12:13;;;;;;;;;;;;;;;;;;6374669;27;20002;-77
2024/02/27 16:15:13;;;;;;;;;;;;;;;;;;6358193;27;19947;-77
2024/02/27 16:18:13;;;;;;;;;;;;;;;;;;6362259;27;20283;-77
2024/02/27 16:21:13;;;;;;;;;;;;;;;;;;6352973;27;20280;-78
2024/02/27 16:24:13;;;;;;;;;;;;;;;;;;6357038;27;19984;-77
2024/02/27 16:27:14;;;;;;;;;;;;;;;;;;6364680;27;19973;-80
2024/02/27 16:30:15;;;;;;;;;;;;;;;;;;6357476;27;20327;-77
2024/02/27 16:33:15;;;;;;;;;;;;;;;;;;6350421;27;19912;-79
2024/02/27 16:36:15;;;;;;;;;;;;;;;;;;6351015;27;20433;-79
2024/02/27 16:39:16;;;;;;;;;;;;;;;;;;6351700;28;19908;-79
2024/02/27 16:42:17;;;;;;;;;;;;;;;;;;6351440;28;19923;-79
2024/02/27 16:45:17;;;;;;;;;;;;;;;;;;6348756;28;19915;-79
2024/02/27 16:48:17;;;;;;;;;;;;;;;;;;6349553;28;20322;-79
2024/02/27 16:51:17;;;;;;;;;;;;;;;;;;6352226;27;19911;-80
2024/02/27 16:54:17;;;;;;;;;;;;;;;;;;6372030;27;19934;-79
2024/02/27 16:57:20;;;;;;;;;;;;;;;;;;6372370;27;19912;-79
2024/02/27 17:00:21;;;;;;;;;;;;;;;;;;6348906;27;19912;-82
2024/02/27 17:03:21;;;;;;;;;;;;;;;;;;6351831;27;20326;-79
2024/02/27 17:06:25;;;;;;;;;;;;;;;;;;6348208;28;19923;-79
2024/02/27 17:09:26;;;;;;;;;;;;;;;;;;6355196;27;19958;-77
2024/02/27 17:12:26;;;;;;;;;;;;;;;;;;6369630;27;19912;-78
2024/02/27 17:15:26;;;;;;;;;;;;;;;;;;6332590;28;19920;-77
2024/02/27 17:18:26;;;;;;;;;;;;;;;;;;6323408;28;19913;-79
2024/02/27 17:21:27;;;;;;;;;;;;;;;;;;6330191;28;19920;-78
2024/02/27 17:24:27;;;;;;;;;;;;;;;;;;6331081;28;20479;-78
2024/02/27 17:27:27;;;;;;;;;;;;;;;;;;6344693;28;20249;-79
2024/02/27 17:30:27;;;;;;;;;;;;;;;;;;6338301;28;20256;-80
2024/02/27 17:33:27;;;;;;;;;;;;;;;;;;6325194;28;20374;-82
2024/02/27 17:36:27;;;;;;;;;;;;;;;;;;6329752;28;20010;-83
2024/02/27 17:39:27;;;;;;;;;;;;;;;;;;6339957;28;19919;-83
2024/02/27 17:42:30;;;;;;;;;;;;;;;;;;6341423;28;19934;-82
2024/02/27 17:45:30;;;;;;;;;;;;;;;;;;6336277;28;20361;-82
2024/02/27 17:48:30;;;;;;;;;;;;;;;;;;6339063;28;21113;-83
2024/02/27 17:51:30;;;;;;;;;;;;;;;;;;6328490;28;20352;-82
2024/02/27 17:54:30;;;;;;;;;;;;;;;;;;6328655;28;19916;-82
2024/02/27 17:57:31;;;;;;;;;;;;;;;;;;6328484;28;19915;-82
2024/02/27 18:00:31;;;;;;;;;;;;;;;;;;6331944;28;19912;-83
2024/02/27 18:03:31;;;;;;;;;;;;;;;;;;6328692;28;19961;-83
2024/02/27 18:06:33;;;;;;;;;;;;;;;;;;6331066;28;19916;-88
2024/02/27 18:09:33;;;;;;;;;;;;;;;;;;6326193;28;19916;-88
2024/02/27 18:12:33;;;;;;;;;;;;;;;;;;6331038;28;19926;-88
2024/02/27 18:15:33;;;;;;;;;;;;;;;;;;6325406;28;19916;-89
2024/02/27 18:18:34;;;;;;;;;;;;;;;;;;6318409;28;19919;-86
2024/02/27 18:21:34;;;;;;;;;;;;;;;;;;6329752;28;19923;-88
2024/02/27 18:24:34;;;;;;;;;;;;;;;;;;6335316;28;19919;-83
2024/02/27 18:27:34;;;;;;;;;;;;;;;;;;6329854;28;19915;-82
2024/02/27 18:30:36;;;;;;;;;;;;;;;;;;6334929;28;19918;-82
2024/02/27 18:33:36;;;;;;;;;;;;;;;;;;6325870;28;19927;-82
2024/02/27 18:36:36;;;;;;;;;;;;;;;;;;6328663;28;19915;-82
2024/02/27 18:39:38;;;;;;;;;;;;;;;;;;6333563;28;19916;-83
2024/02/27 18:42:39;;;;;;;;;;;;;;;;;;6310052;28;19916;-83
2024/02/27 18:45:40;;;;;;;;;;;;;;;;;;6334591;28;19958;-82
2024/02/27 18:48:40;;;;;;;;;;;;;;;;;;6315547;28;19966;-83
2024/02/27 18:51:40;;;;;;;;;;;;;;;;;;6338623;28;20003;-82
2024/02/27 18:54:41;;;;;;;;;;;;;;;;;;6330917;28;20387;-82
2024/02/27 18:57:41;;;;;;;;;;;;;;;;;;6328915;28;19934;-82
2024/02/27 19:00:42;;;;;;;;;;;;;;;;;;6332466;28;19911;-82
2024/02/27 19:03:42;;;;;;;;;;;;;;;;;;6337702;28;19970;-78
2024/02/27 19:06:43;;;;;;;;;;;;;;;;;;6330225;28;19968;-80
2024/02/27 19:09:43;;;;;;;;;;;;;;;;;;6327274;28;20003;-82
2024/02/27 19:12:43;;;;;;;;;;;;;;;;;;6314692;27;19931;-81
2024/02/27 19:15:43;;;;;;;;;;;;;;;;;;6358960;27;20416;-82
2024/02/27 19:18:43;;;;;;;;;;;;;;;;;;6357818;27;20364;-82
2024/02/27 19:21:43;;;;;;;;;;;;;;;;;;6348871;27;20360;-80
2024/02/27 19:24:44;;;;;;;;;;;;;;;;;;6354519;27;19916;-80
2024/02/27 19:27:46;;;;;;;;;;;;;;;;;;6359335;27;20360;-81
2024/02/27 19:30:46;;;;;;;;;;;;;;;;;;6357126;27;20299;-81
2024/02/27 19:33:48;;;;;;;;;;;;;;;;;;6357401;27;19962;-82
2024/02/27 19:36:48;;;;;;;;;;;;;;;;;;6359310;27;19912;-81
2024/02/27 19:39:48;;;;;;;;;;;;;;;;;;6350844;27;20284;-81
2024/02/27 19:42:48;;;;;;;;;;;;;;;;;;6354920;27;20381;-81
2024/02/27 19:45:48;;;;;;;;;;;;;;;;;;6356642;27;19919;-81
2024/02/27 19:48:49;;;;;;;;;;;;;;;;;;6356823;27;19967;-82
2024/02/27 19:51:49;;;;;;;;;;;;;;;;;;6351991;27;19911;-81
2024/02/27 19:54:49;;;;;;;;;;;;;;;;;;6350732;27;19930;-82
2024/02/27 19:57:49;;;;;;;;;;;;;;;;;;6360002;27;19912;-81
2024/02/27 20:00:49;;;;;;;;;;;;;;;;;;6351271;27;19919;-81
2024/02/27 20:03:50;;;;;;;;;;;;;;;;;;6350619;27;19923;-81
2024/02/27 20:06:50;;;;;;;;;;;;;;;;;;6354639;27;19915;-81
2024/02/27 20:09:50;;;;;;;;;;;;;;;;;;6350758;27;19920;-81
2024/02/27 20:12:50;;;;;;;;;;;;;;;;;;6356333;27;20031;-83
2024/02/27 20:15:53;;;;;;;;;;;;;;;;;;6351996;27;20075;-83
2024/02/27 20:18:54;;;;;;;;;;;;;;;;;;6350763;27;19912;-83
2024/02/27 20:21:58;;;;;;;;;;;;;;;;;;6350506;27;19919;-83
2024/02/27 20:24:58;;;;;;;;;;;;;;;;;;6349512;27;19919;-83
2024/02/27 20:27:59;;;;;;;;;;;;;;;;;;6354403;27;20428;-83
2024/02/27 20:30:59;;;;;;;;;;;;;;;;;;6349439;27;19915;-83